Time;durP1;ratioP1;P1;durP2;ratioP2;P2;SDS_P1;SDS_P2;PMS_P1;PMS_P2;Temp;Humidity;BMP_temperature;BMP_pressure;BME280_temperature;BME280_humidity;BME280_pressure;Samples;Min_cycle;Max_cycle;Signal;HPM_P1;HPM_P2
2024/02/14 00:00:41;;;;;;;;;5.67;5.67;;;;;15.56;100.00;101197.13;2115870;27;46197;-51
2024/02/14 00:01:42;;;;;;;;;6.00;5.33;;;;;15.72;100.00;101187.66;2115842;27;46148;-53
2024/02/14 00:02:49;;;;;;;;;6.75;6.75;;;;;15.82;100.00;101188.22;2116734;27;46355;-52
2024/02/14 00:03:49;;;;;;;;;5.75;5.75;;;;;15.82;100.00;101175.72;2114729;27;48181;-52
2024/02/14 00:04:49;;;;;;;;;5.00;5.00;;;;;15.81;100.00;101181.13;2112902;27;46800;-53
2024/02/14 00:05:51;;;;;;;;;7.00;7.00;;;;;15.81;100.00;101184.69;2116563;27;46914;-52
2024/02/14 00:06:53;;;;;;;;;8.50;6.50;;;;;15.79;100.00;101178.50;2114565;27;45701;-54
2024/02/14 00:07:53;;;;;;;;;7.00;5.75;;;;;15.78;100.00;101183.94;2116015;27;46989;-52
2024/02/14 00:08:53;;;;;;;;;6.67;6.67;;;;;15.78;100.00;101183.94;2115060;27;46339;-51
2024/02/14 00:09:54;;;;;;;;;6.67;6.67;;;;;15.75;100.00;101190.25;2114866;27;46228;-52
2024/02/14 00:10:54;;;;;;;;;6.67;6.33;;;;;15.75;100.00;101192.03;2116688;27;46290;-51
2024/02/14 00:11:55;;;;;;;;;6.33;5.67;;;;;15.74;100.00;101191.16;2115971;27;46112;-50
2024/02/14 00:12:55;;;;;;;;;5.00;5.00;;;;;15.77;100.00;101185.72;2114875;27;46969;-51
2024/02/14 00:13:56;;;;;;;;;3.00;3.00;;;;;15.76;100.00;101192.00;2116312;27;46374;-50
2024/02/14 00:14:57;;;;;;;;;4.33;4.00;;;;;15.78;100.00;101189.28;2115912;27;45518;-54
2024/02/14 00:15:58;;;;;;;;;6.00;6.00;;;;;15.79;100.00;101188.34;2116240;27;46041;-52
2024/02/14 00:16:59;;;;;;;;;6.00;6.00;;;;;15.77;100.00;101190.22;2115065;27;46504;-50
2024/02/14 00:18:00;;;;;;;;;6.00;5.50;;;;;15.77;100.00;101187.53;2115034;27;46394;-53
2024/02/14 00:19:02;;;;;;;;;6.25;6.25;;;;;15.77;100.00;101188.41;2106070;27;46448;-52
2024/02/14 00:20:03;;;;;;;;;6.50;6.50;;;;;15.78;100.00;101186.59;2098061;27;46417;-53
2024/02/14 00:21:04;;;;;;;;;6.25;6.00;;;;;15.78;100.00;101189.28;2105130;27;46681;-49
2024/02/14 00:22:04;;;;;;;;;7.00;7.00;;;;;15.77;100.00;101183.06;2106581;27;46108;-52
2024/02/14 00:23:05;;;;;;;;;9.00;7.00;;;;;15.77;100.00;101187.53;2096797;28;46712;-54
2024/02/14 00:24:05;;;;;;;;;6.67;6.33;;;;;15.77;100.00;101187.53;2096878;28;46645;-51
2024/02/14 00:25:07;;;;;;;;;6.00;6.00;;;;;15.77;100.00;101183.06;2105607;27;46526;-51
2024/02/14 00:26:07;;;;;;;;;6.50;5.75;;;;;15.78;100.00;101178.56;2106999;27;46286;-53
2024/02/14 00:27:07;;;;;;;;;8.00;7.00;;;;;15.79;100.00;101186.53;2114694;27;46553;-53
2024/02/14 00:28:08;;;;;;;;;8.00;7.00;;;;;15.81;100.00;101191.84;2115937;27;46347;-51
2024/02/14 00:29:08;;;;;;;;;5.00;5.00;;;;;15.81;100.00;101197.19;2115376;27;46473;-51
2024/02/14 00:30:10;;;;;;;;;5.67;5.67;;;;;15.80;100.00;101199.00;2114821;27;46179;-54
2024/02/14 00:31:10;;;;;;;;;6.25;6.25;;;;;15.80;100.00;101204.34;2115288;27;46713;-51
2024/02/14 00:32:12;;;;;;;;;5.00;5.00;;;;;15.82;100.00;101205.16;2114798;27;46664;-53
2024/02/14 00:33:12;;;;;;;;;5.75;5.25;;;;;15.81;100.00;101213.25;2114453;27;46559;-52
2024/02/14 00:34:12;;;;;;;;;6.67;5.00;;;;;15.81;100.00;101211.44;2116518;27;46997;-51
2024/02/14 00:35:13;;;;;;;;;7.00;7.00;;;;;15.81;100.00;101211.44;2106129;27;46778;-50
2024/02/14 00:36:13;;;;;;;;;6.67;6.67;;;;;15.78;100.00;101213.34;2107006;27;46321;-53
2024/02/14 00:37:13;;;;;;;;;8.00;8.00;;;;;15.78;100.00;101218.72;2115759;27;47233;-52
2024/02/14 00:38:14;;;;;;;;;7.00;5.67;;;;;15.80;100.00;101214.16;2113704;27;46775;-52
2024/02/14 00:39:14;;;;;;;;;6.00;6.00;;;;;15.81;100.00;101210.56;2115434;27;46776;-49
2024/02/14 00:40:14;;;;;;;;;5.67;5.67;;;;;15.81;100.00;101210.56;2115356;27;46641;-52
2024/02/14 00:41:15;;;;;;;;;6.67;6.67;;;;;15.82;100.00;101209.63;2116225;27;46473;-49
2024/02/14 00:42:15;;;;;;;;;8.33;8.33;;;;;15.81;100.00;101213.25;2115606;27;46357;-51
2024/02/14 00:43:15;;;;;;;;;6.67;6.67;;;;;15.80;100.00;101203.47;2115619;27;46248;-51
2024/02/14 00:44:16;;;;;;;;;6.67;6.67;;;;;15.80;100.00;101219.53;2116281;27;46298;-49
2024/02/14 00:45:17;;;;;;;;;8.00;6.33;;;;;15.80;100.00;101209.69;2115577;27;45939;-52
2024/02/14 00:46:17;;;;;;;;;6.00;5.33;;;;;15.82;100.00;101212.31;2113789;27;46675;-53
2024/02/14 00:47:17;;;;;;;;;5.00;5.00;;;;;15.83;100.00;101208.72;2115530;27;46819;-53
2024/02/14 00:48:18;;;;;;;;;5.33;5.00;;;;;15.83;100.00;101214.94;2116473;27;46690;-53
2024/02/14 00:49:18;;;;;;;;;5.67;5.67;;;;;15.84;100.00;101218.47;2115404;27;47082;-53
2024/02/14 00:50:18;;;;;;;;;7.00;6.67;;;;;15.84;100.00;101213.13;2113656;27;46264;-52
2024/02/14 00:51:19;;;;;;;;;7.00;6.00;;;;;15.85;100.00;101217.53;2088701;28;46119;-51
2024/02/14 00:52:21;;;;;;;;;6.50;6.00;;;;;15.84;100.00;101213.13;2091178;28;45852;-51
2024/02/14 00:53:21;;;;;;;;;6.25;6.25;;;;;15.82;100.00;101207.84;2108159;27;46772;-53
2024/02/14 00:54:22;;;;;;;;;7.67;6.00;;;;;15.83;100.00;101200.69;2108504;27;46887;-52
2024/02/14 00:55:22;;;;;;;;;8.00;8.00;;;;;15.83;100.00;101211.38;2116732;27;46811;-53
2024/02/14 00:56:23;;;;;;;;;6.67;6.00;;;;;15.84;100.00;101211.31;2116211;27;47067;-53
2024/02/14 00:57:26;;;;;;;;;5.67;5.67;;;;;15.83;100.00;101211.38;2098962;28;46875;-50
2024/02/14 00:58:27;;;;;;;;;6.00;6.00;;;;;15.85;100.00;101212.19;2100631;27;46877;-52
2024/02/14 00:59:27;;;;;;;;;5.00;5.00;;;;;15.86;100.00;101211.25;2116973;27;46337;-52
2024/02/14 01:00:27;;;;;;;;;5.67;5.00;;;;;15.85;100.00;101210.38;2116954;27;46299;-52
2024/02/14 01:01:28;;;;;;;;;4.00;4.00;;;;;15.87;100.00;101210.34;2117712;27;47583;-52
2024/02/14 01:02:28;;;;;;;;;7.00;7.00;;;;;15.86;100.00;101204.09;2117043;27;45670;-52
2024/02/14 01:03:28;;;;;;;;;6.67;6.67;;;;;15.84;100.00;101216.69;2117457;27;46710;-51
2024/02/14 01:04:29;;;;;;;;;6.33;6.00;;;;;15.85;100.00;101210.38;2117332;27;46106;-53
2024/02/14 01:05:29;;;;;;;;;5.67;5.67;;;;;15.86;100.00;101213.94;2117291;27;46273;-52
2024/02/14 01:06:30;;;;;;;;;7.33;7.00;;;;;15.86;100.00;101201.44;2115718;27;46207;-49
2024/02/14 01:07:31;;;;;;;;;7.25;7.25;;;;;15.85;100.00;101209.53;2107838;27;46286;-54
2024/02/14 01:08:33;;;;;;;;;8.00;6.75;;;;;15.85;100.00;101196.13;2106809;27;45732;-52
2024/02/14 01:09:33;;;;;;;;;7.50;7.50;;;;;15.85;100.00;101196.13;2098118;28;47135;-52
2024/02/14 01:10:34;;;;;;;;;6.33;6.00;;;;;15.84;100.00;101203.28;2098910;27;46545;-51
2024/02/14 01:11:34;;;;;;;;;7.33;7.33;;;;;15.84;100.00;101200.63;2117138;27;46564;-52
2024/02/14 01:12:34;;;;;;;;;9.33;8.67;;;;;15.83;100.00;101201.56;2116454;27;46247;-52
2024/02/14 01:13:35;;;;;;;;;6.00;6.00;;;;;15.80;100.00;101193.63;2116858;27;46603;-52
2024/02/14 01:14:35;;;;;;;;;5.67;5.00;;;;;15.83;100.00;101204.22;2116817;27;46706;-51
2024/02/14 01:15:35;;;;;;;;;7.67;6.33;;;;;15.83;100.00;101200.69;2116942;27;47408;-52
2024/02/14 01:16:42;;;;;;;;;7.00;7.00;;;;;15.84;100.00;101197.94;2117718;27;46619;-52
2024/02/14 01:17:43;;;;;;;;;7.00;6.25;;;;;15.81;100.00;101194.50;2117281;27;46757;-52
2024/02/14 01:18:43;;;;;;;;;7.00;7.00;;;;;15.84;100.00;101194.41;2117163;27;46828;-53
2024/02/14 01:19:44;;;;;;;;;5.00;5.00;;;;;15.84;100.00;101199.75;2116710;27;46524;-53
2024/02/14 01:20:44;;;;;;;;;6.00;6.00;;;;;15.84;100.00;101197.06;2116937;27;46229;-52
2024/02/14 01:21:48;;;;;;;;;6.33;6.33;;;;;15.83;100.00;101195.31;2116857;27;46506;-49
2024/02/14 01:22:48;;;;;;;;;6.75;6.75;;;;;15.64;100.00;101204.94;2118073;27;46773;-52
2024/02/14 01:23:48;;;;;;;;;7.00;6.00;;;;;15.84;100.00;101205.09;2116469;27;46916;-50
2024/02/14 01:24:49;;;;;;;;;9.00;7.00;;;;;15.84;100.00;101205.97;2115239;27;46503;-49
2024/02/14 01:25:50;;;;;;;;;6.00;5.33;;;;;15.80;100.00;101212.38;2117165;27;46889;-52
2024/02/14 01:26:50;;;;;;;;;5.50;5.50;;;;;15.81;100.00;101215.91;2116525;27;46320;-54
2024/02/14 01:27:52;;;;;;;;;8.00;6.00;;;;;15.80;100.00;101211.50;2117557;27;46900;-51
2024/02/14 01:28:52;;;;;;;;;6.00;5.00;;;;;15.77;100.00;101199.09;2116901;27;46452;-53
2024/02/14 01:29:54;;;;;;;;;10.00;8.00;;;;;15.73;100.00;101200.13;2116938;27;46582;-51
2024/02/14 01:30:56;;;;;;;;;6.25;6.25;;;;;15.81;100.00;101205.22;2107389;27;46520;-53
2024/02/14 01:31:57;;;;;;;;;7.25;7.25;;;;;15.82;100.00;101210.50;2107013;27;46589;-51
2024/02/14 01:32:57;;;;;;;;;5.33;5.33;;;;;15.82;100.00;101213.19;2116604;27;47151;-52
2024/02/14 01:33:59;;;;;;;;;7.33;7.33;;;;;15.80;100.00;101212.38;2117643;27;46388;-53
2024/02/14 01:35:00;;;;;;;;;7.25;6.75;;;;;15.81;100.00;101215.91;2098645;28;46353;-54
2024/02/14 01:36:00;;;;;;;;;5.25;4.75;;;;;15.78;100.00;101208.88;2099097;27;46216;-53
2024/02/14 01:37:01;;;;;;;;;7.33;7.00;;;;;15.79;100.00;101220.47;2116984;27;46891;-51
2024/02/14 01:38:02;;;;;;;;;9.00;7.00;;;;;15.79;100.00;101212.44;2116735;27;45256;-50
2024/02/14 01:39:03;;;;;;;;;6.25;6.25;;;;;15.78;100.00;101222.25;2117249;27;46902;-51
2024/02/14 01:40:03;;;;;;;;;9.33;8.67;;;;;15.81;100.00;101223.94;2115843;27;45985;-51
2024/02/14 01:41:05;;;;;;;;;6.00;6.00;;;;;15.80;100.00;101214.16;2114880;27;46106;-51
2024/02/14 01:42:07;;;;;;;;;7.00;7.00;;;;;15.80;100.00;101215.03;2117377;27;46521;-53
2024/02/14 01:43:08;;;;;;;;;6.75;6.75;;;;;15.80;100.00;101215.03;2117559;27;46829;-50
2024/02/14 01:44:10;;;;;;;;;10.00;9.00;;;;;15.87;100.00;101213.88;2117118;27;45764;-51
2024/02/14 01:45:10;;;;;;;;;9.00;9.00;;;;;15.89;100.00;101227.25;2116700;27;46596;-53
2024/02/14 01:46:10;;;;;;;;;6.33;5.33;;;;;15.89;100.00;101224.56;2116789;27;46045;-49
2024/02/14 01:47:12;;;;;;;;;9.00;8.00;;;;;15.89;100.00;101228.13;2116380;27;46366;-49
2024/02/14 01:48:18;;;;;;;;;6.00;6.00;;;;;15.89;100.00;101240.63;2115757;27;47617;-53
2024/02/14 01:49:18;;;;;;;;;8.00;7.00;;;;;15.80;100.00;101236.47;2116056;27;46979;-52
2024/02/14 01:50:28;;;;;;;;;8.33;8.00;;;;;15.79;100.00;101241.88;2116800;27;46662;-51
2024/02/14 01:51:30;;;;;;;;;5.75;5.75;;;;;15.79;100.00;101232.03;2117021;27;46663;-50
2024/02/14 01:52:31;;;;;;;;;7.50;7.50;;;;;15.80;100.00;101243.59;2115519;27;46699;-51
2024/02/14 01:53:32;;;;;;;;;9.00;7.00;;;;;15.79;100.00;101233.84;2116138;27;46761;-51
2024/02/14 01:54:34;;;;;;;;;7.25;7.00;;;;;15.81;100.00;101237.31;2115893;27;46347;-52
2024/02/14 01:55:34;;;;;;;;;7.75;7.00;;;;;15.79;100.00;101231.16;2116442;27;46359;-50
2024/02/14 01:56:35;;;;;;;;;4.00;4.00;;;;;15.80;100.00;101240.94;2115212;27;46904;-49
2024/02/14 01:57:37;;;;;;;;;6.00;6.00;;;;;15.82;100.00;101239.94;2117176;27;46415;-52
2024/02/14 01:58:38;;;;;;;;;8.25;8.25;;;;;15.84;100.00;101237.22;2116355;27;46037;-50
2024/02/14 01:59:39;;;;;;;;;7.00;7.00;;;;;15.84;100.00;101234.53;2116786;27;46467;-51
2024/02/14 02:00:40;;;;;;;;;6.00;6.00;;;;;15.86;100.00;101232.69;2115556;27;46791;-54
2024/02/14 02:01:40;;;;;;;;;9.00;9.00;;;;;15.87;100.00;101237.09;2115291;27;46547;-52
2024/02/14 02:02:41;;;;;;;;;8.00;8.00;;;;;15.91;100.00;101243.25;2116142;27;46006;-52
2024/02/14 02:03:41;;;;;;;;;7.00;7.00;;;;;15.86;100.00;101244.25;2097924;28;46890;-52
2024/02/14 02:04:42;;;;;;;;;9.00;8.00;;;;;15.86;100.00;101238.91;2098020;28;46264;-52
2024/02/14 02:05:42;;;;;;;;;9.67;9.67;;;;;15.83;100.00;101235.47;2116507;27;46514;-51
2024/02/14 02:06:42;;;;;;;;;9.67;9.67;;;;;15.78;100.00;101242.78;2116894;27;46699;-53
2024/02/14 02:07:43;;;;;;;;;7.67;6.33;;;;;15.79;100.00;101247.22;2117591;27;46354;-53
2024/02/14 02:08:44;;;;;;;;;7.50;7.50;;;;;15.81;100.00;101245.34;2115378;27;46212;-54
2024/02/14 02:09:45;;;;;;;;;9.00;7.33;;;;;15.78;100.00;101241.00;2116236;27;46077;-52
2024/02/14 02:10:45;;;;;;;;;9.33;8.33;;;;;15.80;100.00;101244.47;2115989;27;47587;-54
2024/02/14 02:11:48;;;;;;;;;8.33;8.33;;;;;15.79;100.00;101244.53;2117156;27;46535;-55
2024/02/14 02:12:50;;;;;;;;;9.00;8.75;;;;;15.81;100.00;101238.19;2114219;27;46483;-53
2024/02/14 02:13:51;;;;;;;;;8.00;8.00;;;;;15.80;100.00;101228.44;2117557;27;46222;-54
2024/02/14 02:14:51;;;;;;;;;7.00;7.00;;;;;15.82;100.00;101237.28;2115984;27;46239;-51
2024/02/14 02:15:53;;;;;;;;;7.67;7.67;;;;;15.86;100.00;101230.00;2116813;27;46835;-52
2024/02/14 02:16:53;;;;;;;;;10.25;9.75;;;;;15.86;100.00;101230.88;2115738;27;46792;-51
2024/02/14 02:17:54;;;;;;;;;8.67;8.67;;;;;15.80;100.00;101232.91;2116592;27;46785;-55
2024/02/14 02:18:55;;;;;;;;;9.67;9.00;;;;;15.80;100.00;101239.13;2097957;28;46296;-51
2024/02/14 02:19:55;;;;;;;;;9.00;7.00;;;;;15.82;100.00;101236.41;2097453;28;46369;-54
2024/02/14 02:20:55;;;;;;;;;6.67;6.67;;;;;15.87;100.00;101239.78;2115930;27;46955;-51
2024/02/14 02:21:55;;;;;;;;;7.00;7.00;;;;;15.88;100.00;101233.53;2116798;27;46709;-51
2024/02/14 02:22:56;;;;;;;;;8.33;7.33;;;;;15.89;100.00;101230.78;2116911;27;46017;-51
2024/02/14 02:23:56;;;;;;;;;7.00;7.00;;;;;15.89;100.00;101238.81;2116601;27;46064;-50
2024/02/14 02:24:56;;;;;;;;;8.00;8.00;;;;;15.88;100.00;101236.19;2115196;27;46231;-53
2024/02/14 02:25:57;;;;;;;;;9.33;8.33;;;;;15.87;100.00;101227.25;2089559;28;46441;-52
2024/02/14 02:26:57;;;;;;;;;8.00;8.00;;;;;15.53;100.00;101229.34;2089717;28;46694;-53
2024/02/14 02:27:58;;;;;;;;;9.67;8.00;;;;;15.43;100.00;101239.47;2116367;27;46693;-51
2024/02/14 02:28:59;;;;;;;;;7.00;6.50;;;;;15.70;100.00;101232.34;2113931;27;46858;-49
2024/02/14 02:30:00;;;;;;;;;6.50;6.50;;;;;15.79;100.00;101237.38;2116071;27;46823;-49
2024/02/14 02:31:00;;;;;;;;;8.50;8.50;;;;;15.81;100.00;101240.88;2117244;27;46992;-52
2024/02/14 02:32:01;;;;;;;;;9.00;8.00;;;;;15.82;100.00;101234.59;2116894;27;46972;-50
2024/02/14 02:33:02;;;;;;;;;9.33;8.33;;;;;15.84;100.00;101246.13;2115426;27;46563;-51
2024/02/14 02:34:02;;;;;;;;;8.25;7.25;;;;;15.86;100.00;101238.91;2115678;27;46296;-50
2024/02/14 02:35:04;;;;;;;;;7.33;7.00;;;;;15.85;100.00;101233.59;2116761;27;46249;-52
2024/02/14 02:36:07;;;;;;;;;9.00;8.00;;;;;15.86;100.00;101240.69;2116120;27;46336;-54
2024/02/14 02:37:09;;;;;;;;;7.50;7.25;;;;;15.84;100.00;101245.25;2116092;27;45973;-53
2024/02/14 02:38:09;;;;;;;;;10.25;8.75;;;;;15.86;100.00;101249.59;2117439;27;46502;-55
2024/02/14 02:39:11;;;;;;;;;7.33;6.67;;;;;15.84;100.00;101237.22;2115883;27;46254;-53
2024/02/14 02:40:12;;;;;;;;;5.50;5.50;;;;;15.83;100.00;101241.69;2115357;27;46972;-53
2024/02/14 02:41:13;;;;;;;;;7.25;7.00;;;;;15.84;100.00;101240.75;2116360;27;46644;-52
2024/02/14 02:42:14;;;;;;;;;8.00;8.00;;;;;15.84;100.00;101242.56;2116964;27;46721;-52
2024/02/14 02:43:14;;;;;;;;;8.00;8.00;;;;;15.80;100.00;101246.28;2116206;27;46824;-51
2024/02/14 02:44:15;;;;;;;;;5.67;5.67;;;;;15.77;100.00;101230.34;2116107;27;46288;-52
2024/02/14 02:45:15;;;;;;;;;10.00;8.00;;;;;15.84;100.00;101234.53;2114731;27;46842;-55
2024/02/14 02:46:15;;;;;;;;;10.00;9.67;;;;;15.88;100.00;101233.53;2114969;27;46585;-51
2024/02/14 02:47:17;;;;;;;;;4.00;4.00;;;;;15.86;100.00;101240.69;2117239;27;46440;-53
2024/02/14 02:48:17;;;;;;;;;6.00;6.00;;;;;15.84;100.00;101240.75;2115995;27;46561;-53
2024/02/14 02:49:18;;;;;;;;;9.00;9.00;;;;;15.87;100.00;101253.16;2116924;27;45953;-53
2024/02/14 02:50:19;;;;;;;;;8.00;8.00;;;;;15.88;100.00;101250.47;2116132;27;46308;-50
2024/02/14 02:51:19;;;;;;;;;9.00;8.00;;;;;15.86;100.00;101243.38;2115832;27;46496;-52
2024/02/14 02:52:20;;;;;;;;;8.33;8.33;;;;;15.88;100.00;101247.78;2089441;28;46219;-52
2024/02/14 02:53:20;;;;;;;;;9.33;8.33;;;;;15.90;100.00;101242.38;2090441;28;46740;-49
2024/02/14 02:54:23;;;;;;;;;8.00;7.00;;;;;15.89;100.00;101241.50;2114800;27;46545;-53
2024/02/14 02:55:23;;;;;;;;;6.75;6.75;;;;;15.92;100.00;101250.34;2117391;27;46963;-52
2024/02/14 02:56:27;;;;;;;;;8.67;7.67;;;;;15.89;100.00;101240.63;2115246;27;46154;-53
2024/02/14 02:57:29;;;;;;;;;8.25;6.50;;;;;15.90;100.00;101242.38;2116586;27;46630;-54
2024/02/14 02:58:29;;;;;;;;;7.00;7.00;;;;;15.90;100.00;101242.38;2116544;27;46445;-53
2024/02/14 02:59:30;;;;;;;;;6.67;6.00;;;;;15.86;100.00;101240.69;2112961;27;46821;-52
2024/02/14 03:00:30;;;;;;;;;6.00;6.00;;;;;15.89;100.00;101240.63;2117227;27;46776;-51
2024/02/14 03:01:37;;;;;;;;;8.00;8.00;;;;;15.92;100.00;101248.53;2114394;27;46612;-52
2024/02/14 03:02:46;;;;;;;;;6.25;6.25;;;;;15.95;100.00;101242.19;2115051;27;46714;-50
2024/02/14 03:03:47;;;;;;;;;6.00;6.00;;;;;15.94;100.00;101244.00;2116550;27;46792;-52
2024/02/14 03:04:47;;;;;;;;;7.67;6.67;;;;;15.95;100.00;101244.88;2116407;27;46405;-49
2024/02/14 03:05:47;;;;;;;;;7.00;7.00;;;;;15.91;100.00;101245.91;2115894;27;46343;-49
2024/02/14 03:06:48;;;;;;;;;10.00;7.33;;;;;15.94;100.00;101248.47;2117053;27;45953;-53
2024/02/14 03:07:49;;;;;;;;;8.00;8.00;;;;;15.94;100.00;101245.81;2114727;27;46244;-51
2024/02/14 03:08:52;;;;;;;;;6.75;6.75;;;;;15.91;100.00;101238.75;2114267;27;46752;-49
2024/02/14 03:09:52;;;;;;;;;8.00;8.00;;;;;15.90;100.00;101245.03;2116243;27;47099;-49
2024/02/14 03:10:52;;;;;;;;;8.00;8.00;;;;;15.91;100.00;101245.91;2115626;27;46506;-52
2024/02/14 03:11:56;;;;;;;;;7.00;7.00;;;;;15.94;100.00;101248.47;2106342;27;46327;-51
2024/02/14 03:12:56;;;;;;;;;8.00;8.00;;;;;15.93;100.00;101246.72;2107350;27;46368;-49
2024/02/14 03:13:57;;;;;;;;;9.67;7.33;;;;;15.94;100.00;101245.81;2115411;27;46706;-50
2024/02/14 03:14:58;;;;;;;;;6.00;6.00;;;;;15.95;100.00;101248.41;2117260;27;46211;-51
2024/02/14 03:15:58;;;;;;;;;6.33;6.33;;;;;15.97;100.00;101249.22;2116094;27;46631;-52
2024/02/14 03:17:00;;;;;;;;;5.33;5.33;;;;;15.95;100.00;101243.06;2116617;27;45809;-53
2024/02/14 03:18:00;;;;;;;;;7.75;7.75;;;;;15.94;100.00;101246.69;2116505;27;46298;-52
2024/02/14 03:19:00;;;;;;;;;7.00;7.00;;;;;15.94;100.00;101235.97;2115841;27;46401;-54
2024/02/14 03:20:01;;;;;;;;;6.00;6.00;;;;;15.96;100.00;101241.25;2113813;27;46174;-50
2024/02/14 03:21:02;;;;;;;;;6.67;6.67;;;;;15.94;100.00;101244.00;2116398;27;46639;-51
2024/02/14 03:22:05;;;;;;;;;9.00;9.00;;;;;15.93;100.00;101242.25;2116057;27;45485;-52
2024/02/14 03:23:06;;;;;;;;;7.00;7.00;;;;;15.94;100.00;101240.44;2116178;27;46472;-53
2024/02/14 03:24:09;;;;;;;;;8.00;8.00;;;;;15.93;100.00;101249.41;2115346;27;46424;-55
2024/02/14 03:25:13;;;;;;;;;10.75;9.00;;;;;16.01;100.00;101248.22;2115482;27;46586;-53
2024/02/14 03:26:13;;;;;;;;;7.75;6.75;;;;;16.02;100.00;101252.63;2116334;27;46529;-51
2024/02/14 03:27:14;;;;;;;;;9.33;9.33;;;;;16.03;100.00;101250.84;2115981;27;46265;-53
2024/02/14 03:28:14;;;;;;;;;9.00;7.00;;;;;16.04;100.00;101244.56;2115650;27;46183;-51
2024/02/14 03:29:16;;;;;;;;;6.67;6.67;;;;;16.04;100.00;101249.91;2116155;27;46304;-52
2024/02/14 03:30:16;;;;;;;;;6.75;6.75;;;;;16.02;100.00;101249.97;2113493;27;46498;-53
2024/02/14 03:31:17;;;;;;;;;7.67;7.67;;;;;16.01;100.00;101245.53;2115977;27;46205;-50
2024/02/14 03:32:17;;;;;;;;;7.67;6.33;;;;;16.02;100.00;101247.28;2106564;27;46489;-50
2024/02/14 03:33:18;;;;;;;;;7.00;7.00;;;;;16.03;100.00;101242.81;2106338;27;46693;-51
2024/02/14 03:34:19;;;;;;;;;7.33;7.33;;;;;16.03;100.00;101254.38;2116547;27;46489;-53
2024/02/14 03:35:21;;;;;;;;;8.00;7.50;;;;;16.02;100.00;101243.75;2114373;27;46447;-53
2024/02/14 03:36:24;;;;;;;;;8.25;8.00;;;;;16.02;100.00;101249.97;2100560;28;46540;-50
2024/02/14 03:37:24;;;;;;;;;8.50;8.00;;;;;16.02;100.00;101233.91;2101612;27;46572;-53
2024/02/14 03:38:29;;;;;;;;;7.00;7.00;;;;;16.04;100.00;101241.88;2115700;27;46898;-53
2024/02/14 03:39:30;;;;;;;;;8.00;7.25;;;;;16.01;100.00;101247.34;2115603;27;46899;-52
2024/02/14 03:40:31;;;;;;;;;6.75;6.75;;;;;16.02;100.00;101246.41;2117007;27;46863;-52
2024/02/14 03:41:32;;;;;;;;;8.50;8.25;;;;;16.03;100.00;101235.66;2115518;27;46388;-53
2024/02/14 03:42:34;;;;;;;;;8.00;8.00;;;;;16.04;100.00;101239.19;2116059;27;46758;-53
2024/02/14 03:43:34;;;;;;;;;9.00;9.00;;;;;16.03;100.00;101237.44;2114987;27;46403;-55
2024/02/14 03:44:37;;;;;;;;;9.00;9.00;;;;;16.00;100.00;101234.84;2115638;27;46093;-55
2024/02/14 03:45:38;;;;;;;;;7.00;6.75;;;;;15.98;100.00;101242.06;2116019;27;46603;-54
2024/02/14 03:46:38;;;;;;;;;8.33;7.67;;;;;15.99;100.00;101236.66;2106122;27;45862;-51
2024/02/14 03:47:39;;;;;;;;;8.33;8.33;;;;;15.98;100.00;101237.59;2106487;27;46189;-51
2024/02/14 03:48:41;;;;;;;;;7.00;7.00;;;;;15.98;100.00;101236.72;2097294;28;46598;-51
2024/02/14 03:49:42;;;;;;;;;8.25;7.50;;;;;16.00;100.00;101241.09;2089387;28;46766;-52
2024/02/14 03:50:42;;;;;;;;;7.33;7.33;;;;;16.05;100.00;101232.91;2097282;27;46541;-52
2024/02/14 03:51:43;;;;;;;;;10.00;10.00;;;;;16.06;100.00;101237.34;2116682;27;46361;-49
2024/02/14 03:52:43;;;;;;;;;6.00;6.00;;;;;16.08;100.00;101231.00;2115529;27;46805;-49
2024/02/14 03:53:44;;;;;;;;;11.00;10.00;;;;;16.07;100.00;101231.91;2115865;27;46393;-52
2024/02/14 03:54:44;;;;;;;;;8.33;8.00;;;;;16.07;100.00;101234.59;2113934;27;46392;-53
2024/02/14 03:55:44;;;;;;;;;9.00;9.00;;;;;16.06;100.00;101229.31;2116275;27;46290;-50
2024/02/14 03:56:45;;;;;;;;;8.67;8.00;;;;;16.05;100.00;101230.22;2116244;27;46290;-51
2024/02/14 03:57:46;;;;;;;;;8.00;8.00;;;;;16.04;100.00;101225.81;2114149;27;46176;-49
2024/02/14 03:58:47;;;;;;;;;9.75;8.25;;;;;16.02;100.00;101228.53;2111219;27;47064;-51
2024/02/14 03:59:47;;;;;;;;;10.67;9.67;;;;;16.03;100.00;101237.44;2115696;27;46603;-52
2024/02/14 04:00:50;;;;;;;;;10.67;10.67;;;;;16.05;100.00;101223.06;2115711;27;46771;-49
2024/02/14 04:01:53;;;;;;;;;8.00;8.00;;;;;16.00;100.00;101238.41;2115084;27;46908;-52
2024/02/14 04:02:58;;;;;;;;;10.50;8.75;;;;;16.01;100.00;101234.84;2096162;28;46679;-52
2024/02/14 04:03:59;;;;;;;;;9.00;8.25;;;;;16.01;100.00;101233.97;2091781;27;46566;-50
2024/02/14 04:04:59;;;;;;;;;9.67;8.67;;;;;16.04;100.00;101232.03;2107740;27;46315;-53
2024/02/14 04:06:00;;;;;;;;;11.00;10.00;;;;;16.03;100.00;101241.00;2115672;27;46428;-50
2024/02/14 04:07:01;;;;;;;;;10.00;9.00;;;;;16.02;100.00;101243.75;2115313;27;46702;-52
2024/02/14 04:08:03;;;;;;;;;9.50;9.25;;;;;16.04;100.00;101242.75;2106649;27;45742;-51
2024/02/14 04:09:04;;;;;;;;;10.75;9.00;;;;;16.06;100.00;101248.91;2106290;27;46792;-53
2024/02/14 04:10:05;;;;;;;;;9.00;8.50;;;;;16.05;100.00;101246.28;2115861;27;46948;-51
2024/02/14 04:11:05;;;;;;;;;9.50;9.00;;;;;16.03;100.00;101250.84;2114414;27;47408;-50
2024/02/14 04:12:06;;;;;;;;;7.00;7.00;;;;;16.02;100.00;101249.97;2116349;27;46784;-54
2024/02/14 04:13:06;;;;;;;;;9.00;9.00;;;;;16.02;100.00;101249.09;2115379;27;46911;-52
2024/02/14 04:14:07;;;;;;;;;10.00;9.67;;;;;16.04;100.00;101253.47;2115927;27;47070;-51
2024/02/14 04:15:09;;;;;;;;;8.00;8.00;;;;;16.08;100.00;101252.41;2114200;27;46702;-54
2024/02/14 04:16:09;;;;;;;;;8.00;7.75;;;;;16.08;100.00;101255.09;2115932;27;45997;-53
2024/02/14 04:17:11;;;;;;;;;9.67;9.67;;;;;16.06;100.00;101248.91;2114617;27;46559;-49
2024/02/14 04:18:12;;;;;;;;;10.25;9.00;;;;;16.08;100.00;101244.38;2115358;27;46850;-54
2024/02/14 04:19:12;;;;;;;;;9.00;9.00;;;;;16.07;100.00;101250.66;2115706;27;46459;-52
2024/02/14 04:20:13;;;;;;;;;8.00;8.00;;;;;16.07;100.00;101247.97;2106959;27;46240;-52
2024/02/14 04:21:14;;;;;;;;;8.67;8.00;;;;;16.07;100.00;101245.31;2106719;27;46165;-50
2024/02/14 04:22:14;;;;;;;;;8.67;8.67;;;;;16.09;100.00;101253.28;2116011;27;46849;-51
2024/02/14 04:23:14;;;;;;;;;7.33;7.00;;;;;16.08;100.00;101257.75;2115824;27;46439;-51
2024/02/14 04:24:15;;;;;;;;;7.67;7.67;;;;;16.09;100.00;101255.97;2115988;27;46299;-51
2024/02/14 04:25:15;;;;;;;;;9.67;7.67;;;;;16.09;100.00;101255.97;2114968;27;46492;-50
2024/02/14 04:26:22;;;;;;;;;7.00;7.00;;;;;16.11;100.00;101251.41;2116755;27;46414;-49
2024/02/14 04:27:22;;;;;;;;;7.75;7.75;;;;;16.08;100.00;101249.72;2117393;27;46762;-52
2024/02/14 04:28:23;;;;;;;;;8.00;8.00;;;;;16.09;100.00;101250.59;2117032;27;46790;-50
2024/02/14 04:29:23;;;;;;;;;9.33;9.33;;;;;16.08;100.00;101248.84;2116780;27;46196;-51
2024/02/14 04:30:23;;;;;;;;;6.67;6.67;;;;;16.07;100.00;101253.34;2117220;27;45914;-50
2024/02/14 04:31:24;;;;;;;;;7.67;7.67;;;;;16.10;100.00;101238.97;2116499;27;46590;-49
2024/02/14 04:32:24;;;;;;;;;8.00;6.00;;;;;16.09;100.00;101243.44;2114924;27;46553;-51
2024/02/14 04:33:25;;;;;;;;;6.33;6.33;;;;;16.09;100.00;101248.78;2116849;27;46097;-52
2024/02/14 04:34:26;;;;;;;;;6.75;6.75;;;;;16.08;100.00;101240.81;2117016;27;46301;-52
2024/02/14 04:35:27;;;;;;;;;8.50;7.25;;;;;16.09;100.00;101245.25;2116767;27;47258;-50
2024/02/14 04:36:29;;;;;;;;;6.67;6.33;;;;;16.07;100.00;101247.97;2117158;27;47239;-53
2024/02/14 04:37:29;;;;;;;;;8.75;7.00;;;;;16.10;100.00;101255.03;2116045;27;46622;-52
2024/02/14 04:38:30;;;;;;;;;9.00;9.00;;;;;16.08;100.00;101251.53;2115845;27;46334;-51
2024/02/14 04:39:30;;;;;;;;;9.00;7.67;;;;;16.08;100.00;101249.72;2117216;27;45887;-51
2024/02/14 04:40:30;;;;;;;;;9.67;7.67;;;;;16.08;100.00;101255.09;2117707;27;45932;-53